Time;durP1;ratioP1;P1;durP2;ratioP2;P2;SDS_P1;SDS_P2;PMS_P1;PMS_P2;Temp;Humidity;BMP_temperature;BMP_pressure;BME280_temperature;BME280_humidity;BME280_pressure;Samples;Min_cycle;Max_cycle;Signal;HPM_P1;HPM_P2
2021/03/13 00:02:21;;;;;;;4.28;1.60;;;;;;;;;;5102692;28;20074;-72
2021/03/13 00:04:47;;;;;;;3.53;1.70;;;;;;;;;;5106618;28;20039;-72
2021/03/13 00:07:12;;;;;;;6.55;1.27;;;;;;;;;;5107077;28;20051;-72
2021/03/13 00:09:37;;;;;;;2.35;1.15;;;;;;;;;;5103159;28;20020;-72
2021/03/13 00:12:03;;;;;;;4.38;1.60;;;;;;;;;;5107270;28;20126;-72
2021/03/13 00:14:28;;;;;;;4.18;1.27;;;;;;;;;;5105992;28;20042;-72
2021/03/13 00:16:54;;;;;;;2.90;1.25;;;;;;;;;;5104956;28;20409;-72
2021/03/13 00:19:19;;;;;;;4.35;1.67;;;;;;;;;;5086643;28;20038;-71
2021/03/13 00:21:45;;;;;;;3.88;1.20;;;;;;;;;;5102368;28;20034;-72
2021/03/13 00:24:10;;;;;;;3.80;1.55;;;;;;;;;;5107446;28;20036;-71
2021/03/13 00:26:35;;;;;;;5.43;1.25;;;;;;;;;;5105631;28;20036;-72
2021/03/13 00:29:01;;;;;;;3.70;1.30;;;;;;;;;;5102574;28;20064;-71
2021/03/13 00:31:26;;;;;;;5.03;1.23;;;;;;;;;;5105610;28;20739;-71
2021/03/13 00:33:52;;;;;;;2.00;1.08;;;;;;;;;;5106206;28;20078;-71
2021/03/13 00:36:17;;;;;;;2.72;1.00;;;;;;;;;;5103864;28;20051;-71
2021/03/13 00:38:42;;;;;;;3.65;1.20;;;;;;;;;;5105582;28;20046;-69
2021/03/13 00:41:08;;;;;;;2.65;0.93;;;;;;;;;;5105881;28;20487;-70
2021/03/13 00:43:33;;;;;;;9.35;1.70;;;;;;;;;;5101001;28;20393;-71
2021/03/13 00:45:59;;;;;;;7.53;1.45;;;;;;;;;;5101300;28;20063;-71
2021/03/13 00:48:24;;;;;;;2.47;0.88;;;;;;;;;;5105782;28;20054;-71
2021/03/13 00:50:50;;;;;;;2.53;0.93;;;;;;;;;;5103335;28;20460;-71
2021/03/13 00:53:15;;;;;;;3.03;1.25;;;;;;;;;;5105129;28;20484;-71
2021/03/13 00:55:41;;;;;;;2.05;0.93;;;;;;;;;;5103845;28;20035;-73
2021/03/13 00:58:06;;;;;;;2.38;1.00;;;;;;;;;;5106242;28;20512;-72
2021/03/13 01:00:32;;;;;;;3.50;1.30;;;;;;;;;;5102928;28;20044;-73
2021/03/13 01:02:58;;;;;;;3.72;0.90;;;;;;;;;;5104457;28;20040;-71
2021/03/13 01:05:23;;;;;;;3.85;1.23;;;;;;;;;;5099977;28;20492;-72
2021/03/13 01:07:48;;;;;;;2.83;0.93;;;;;;;;;;5106139;28;20039;-72
2021/03/13 01:10:16;;;;;;;2.60;1.27;;;;;;;;;;5103666;28;20032;-72
2021/03/13 01:12:43;;;;;;;1.80;0.73;;;;;;;;;;5103596;28;20039;-72
2021/03/13 01:15:12;;;;;;;1.95;0.82;;;;;;;;;;5100700;28;20055;-71
2021/03/13 01:17:38;;;;;;;2.20;1.10;;;;;;;;;;5104652;28;20024;-72
2021/03/13 01:20:06;;;;;;;5.75;1.83;;;;;;;;;;5100244;28;20039;-72
2021/03/13 01:22:32;;;;;;;25.50;1.70;;;;;;;;;;5105263;28;20027;-71
2021/03/13 01:24:57;;;;;;;2.70;1.30;;;;;;;;;;5104774;28;20044;-72
2021/03/13 01:27:22;;;;;;;2.88;1.15;;;;;;;;;;5099932;28;20042;-71
2021/03/13 01:29:48;;;;;;;2.42;1.00;;;;;;;;;;5103763;28;20102;-70
2021/03/13 01:32:13;;;;;;;3.75;1.25;;;;;;;;;;5106015;28;20635;-70
2021/03/13 01:34:39;;;;;;;7.20;1.33;;;;;;;;;;5103233;28;20036;-70
2021/03/13 01:37:05;;;;;;;4.32;1.17;;;;;;;;;;5104689;28;20551;-71
2021/03/13 01:39:30;;;;;;;4.20;1.30;;;;;;;;;;5100064;28;20036;-70
2021/03/13 01:41:55;;;;;;;2.50;1.13;;;;;;;;;;5100331;28;20063;-71
2021/03/13 01:44:21;;;;;;;3.58;1.25;;;;;;;;;;5101611;28;20114;-71
2021/03/13 01:46:47;;;;;;;2.28;0.93;;;;;;;;;;5105907;28;20106;-73
2021/03/13 01:49:18;;;;;;;2.25;1.17;;;;;;;;;;5100677;28;20081;-71
2021/03/13 01:51:45;;;;;;;5.78;1.40;;;;;;;;;;5106180;28;20019;-73
2021/03/13 01:54:10;;;;;;;3.08;0.98;;;;;;;;;;5100287;28;20040;-74
2021/03/13 01:56:36;;;;;;;4.28;1.40;;;;;;;;;;5104357;28;20365;-73
2021/03/13 01:59:02;;;;;;;2.20;1.10;;;;;;;;;;5105866;28;20043;-73
2021/03/13 02:01:27;;;;;;;3.25;1.30;;;;;;;;;;5100559;28;20031;-74
2021/03/13 02:03:53;;;;;;;6.10;1.30;;;;;;;;;;5105578;28;20364;-73
2021/03/13 02:06:18;;;;;;;4.15;1.42;;;;;;;;;;5105316;28;20031;-74
2021/03/13 02:08:50;;;;;;;2.47;1.10;;;;;;;;;;5105058;28;20030;-73
2021/03/13 02:11:29;;;;;;;3.45;1.48;;;;;;;;;;5101529;28;20028;-74
2021/03/13 02:14:33;;;;;;;2.38;0.85;;;;;;;;;;5102217;28;20035;-74
2021/03/13 02:17:14;;;;;;;3.42;1.15;;;;;;;;;;5104591;28;20050;-74
2021/03/13 02:20:01;;;;;;;2.80;1.00;;;;;;;;;;5097443;28;20037;-75
2021/03/13 02:22:30;;;;;;;8.55;1.33;;;;;;;;;;5102670;28;20044;-74
2021/03/13 02:25:04;;;;;;;6.13;1.55;;;;;;;;;;5106302;28;20444;-72
2021/03/13 02:28:01;;;;;;;6.35;1.48;;;;;;;;;;5105444;28;20024;-72
2021/03/13 02:30:28;;;;;;;4.93;1.33;;;;;;;;;;5103962;28;20055;-72
2021/03/13 02:33:19;;;;;;;2.25;0.90;;;;;;;;;;5108410;28;20557;-72
2021/03/13 02:35:49;;;;;;;4.55;0.93;;;;;;;;;;5109015;28;20114;-72
2021/03/13 02:38:22;;;;;;;1.80;0.70;;;;;;;;;;5100215;28;20492;-72
2021/03/13 02:40:49;;;;;;;5.57;1.33;;;;;;;;;;5107893;28;20035;-72
2021/03/13 02:43:20;;;;;;;3.05;0.93;;;;;;;;;;5109274;28;20349;-72
2021/03/13 02:45:49;;;;;;;1.73;0.80;;;;;;;;;;5105266;28;20036;-72
2021/03/13 02:48:19;;;;;;;2.92;1.02;;;;;;;;;;5105576;28;20054;-71
2021/03/13 02:50:48;;;;;;;3.38;0.98;;;;;;;;;;5106768;28;20028;-72
2021/03/13 02:53:15;;;;;;;1.75;0.73;;;;;;;;;;5107404;28;20373;-71
2021/03/13 02:55:42;;;;;;;3.50;1.13;;;;;;;;;;5102982;28;20043;-71
2021/03/13 02:58:09;;;;;;;3.15;1.08;;;;;;;;;;5103011;28;20420;-72
2021/03/13 03:00:37;;;;;;;3.30;1.00;;;;;;;;;;5106341;28;20066;-73
2021/03/13 03:03:04;;;;;;;2.17;0.85;;;;;;;;;;5103146;28;20124;-72
2021/03/13 03:05:31;;;;;;;3.53;1.02;;;;;;;;;;5104377;28;20464;-72
2021/03/13 03:08:00;;;;;;;3.28;1.13;;;;;;;;;;5103018;28;20031;-72
2021/03/13 03:10:28;;;;;;;4.25;1.25;;;;;;;;;;5107316;28;20066;-73
2021/03/13 03:12:55;;;;;;;2.38;0.88;;;;;;;;;;5103916;28;20035;-71
2021/03/13 03:15:24;;;;;;;3.50;1.20;;;;;;;;;;5102799;28;20555;-72
2021/03/13 03:17:51;;;;;;;3.30;1.00;;;;;;;;;;5107170;28;20558;-73
2021/03/13 03:20:18;;;;;;;2.88;1.13;;;;;;;;;;5104682;28;20127;-71
2021/03/13 03:22:44;;;;;;;2.60;0.90;;;;;;;;;;5101697;28;20027;-71
2021/03/13 03:25:09;;;;;;;4.43;1.38;;;;;;;;;;5108642;28;20491;-72
2021/03/13 03:27:49;;;;;;;5.25;1.20;;;;;;;;;;5106032;28;20035;-72
2021/03/13 03:30:18;;;;;;;6.30;1.10;;;;;;;;;;5107742;28;20066;-72
2021/03/13 03:32:44;;;;;;;5.35;1.77;;;;;;;;;;5104614;28;20067;-72
2021/03/13 03:35:10;;;;;;;3.03;1.05;;;;;;;;;;5103017;28;20078;-72
2021/03/13 03:37:36;;;;;;;3.70;1.10;;;;;;;;;;5106680;28;20039;-72
2021/03/13 03:40:03;;;;;;;6.72;1.58;;;;;;;;;;5106634;28;20092;-71
2021/03/13 03:42:29;;;;;;;3.42;1.13;;;;;;;;;;5104520;28;20031;-72
2021/03/13 03:44:56;;;;;;;3.15;1.10;;;;;;;;;;5105025;28;20486;-72
2021/03/13 03:47:22;;;;;;;4.10;1.23;;;;;;;;;;5106072;28;20040;-72
2021/03/13 03:49:48;;;;;;;2.97;1.38;;;;;;;;;;5105914;28;20570;-71
2021/03/13 03:52:14;;;;;;;6.13;1.70;;;;;;;;;;5102042;28;20057;-72
2021/03/13 03:54:41;;;;;;;3.40;1.33;;;;;;;;;;5107073;28;20027;-72
2021/03/13 03:57:08;;;;;;;7.47;1.25;;;;;;;;;;5102734;28;20040;-72
2021/03/13 03:59:36;;;;;;;3.70;1.10;;;;;;;;;;5098603;28;20335;-73
2021/03/13 04:02:02;;;;;;;7.40;1.30;;;;;;;;;;5099858;28;20043;-73
2021/03/13 04:04:29;;;;;;;5.10;1.52;;;;;;;;;;5105298;28;20027;-73
2021/03/13 04:06:57;;;;;;;3.22;1.42;;;;;;;;;;5105260;28;20386;-73
2021/03/13 04:09:25;;;;;;;4.95;1.60;;;;;;;;;;5103159;28;20023;-73
2021/03/13 04:11:51;;;;;;;4.40;1.10;;;;;;;;;;5105804;28;20592;-72
2021/03/13 04:14:17;;;;;;;3.03;1.00;;;;;;;;;;5103162;28;20504;-72
2021/03/13 04:16:43;;;;;;;3.05;1.23;;;;;;;;;;5103335;28;20035;-72
2021/03/13 04:19:09;;;;;;;3.75;1.42;;;;;;;;;;5106265;28;20019;-70
2021/03/13 04:21:34;;;;;;;2.83;1.42;;;;;;;;;;5103411;28;20055;-70
2021/03/13 04:24:00;;;;;;;3.10;1.55;;;;;;;;;;5104321;28;20062;-71
2021/03/13 04:26:29;;;;;;;4.35;1.20;;;;;;;;;;5104102;28;20027;-70
2021/03/13 04:28:55;;;;;;;3.20;1.45;;;;;;;;;;5106573;28;20457;-71
2021/03/13 04:31:26;;;;;;;3.20;1.15;;;;;;;;;;5105438;28;20035;-71
2021/03/13 04:33:52;;;;;;;5.30;1.42;;;;;;;;;;5105174;28;20038;-71
2021/03/13 04:36:18;;;;;;;3.25;1.20;;;;;;;;;;5105525;28;20035;-71
2021/03/13 04:38:44;;;;;;;2.38;0.88;;;;;;;;;;5104917;28;20039;-70
2021/03/13 04:41:11;;;;;;;2.83;0.90;;;;;;;;;;5102205;28;20343;-71
2021/03/13 04:43:37;;;;;;;4.32;1.23;;;;;;;;;;5101359;28;20099;-71
2021/03/13 04:46:04;;;;;;;3.78;1.15;;;;;;;;;;5103448;28;20039;-72
2021/03/13 04:48:32;;;;;;;5.63;1.20;;;;;;;;;;5101565;28;20385;-71
2021/03/13 04:50:59;;;;;;;2.60;0.90;;;;;;;;;;5106636;28;20171;-71
2021/03/13 04:53:24;;;;;;;2.22;0.93;;;;;;;;;;5102136;28;20035;-70
2021/03/13 04:55:49;;;;;;;2.17;0.55;;;;;;;;;;5106308;28;20601;-71
2021/03/13 04:58:15;;;;;;;3.30;0.90;;;;;;;;;;5100667;28;20050;-71
2021/03/13 05:00:40;;;;;;;2.10;0.82;;;;;;;;;;5104303;28;20043;-72
2021/03/13 05:03:06;;;;;;;2.85;1.08;;;;;;;;;;5105382;28;20050;-71
2021/03/13 05:05:33;;;;;;;3.05;1.00;;;;;;;;;;5105309;28;20046;-71
2021/03/13 05:08:00;;;;;;;1.95;0.70;;;;;;;;;;5102936;28;20652;-73
2021/03/13 05:10:25;;;;;;;2.38;0.80;;;;;;;;;;5103951;28;20027;-73
2021/03/13 05:12:51;;;;;;;3.67;1.25;;;;;;;;;;5102615;28;20147;-73
2021/03/13 05:15:17;;;;;;;3.25;0.70;;;;;;;;;;5105753;28;20391;-72
2021/03/13 05:17:42;;;;;;;1.08;0.65;;;;;;;;;;5101720;28;20036;-72
2021/03/13 05:20:08;;;;;;;3.45;0.77;;;;;;;;;;5104358;28;20050;-71
2021/03/13 05:22:34;;;;;;;2.45;0.95;;;;;;;;;;5103402;28;20027;-72
2021/03/13 05:24:59;;;;;;;1.98;0.80;;;;;;;;;;5106487;28;20031;-72
2021/03/13 05:27:24;;;;;;;3.38;1.02;;;;;;;;;;5101918;28;20081;-72
2021/03/13 05:29:50;;;;;;;4.55;1.05;;;;;;;;;;5101482;28;20041;-74
2021/03/13 05:32:16;;;;;;;3.35;1.00;;;;;;;;;;5102390;28;20036;-70
2021/03/13 05:34:42;;;;;;;6.28;1.60;;;;;;;;;;5102067;28;20027;-73
2021/03/13 05:37:07;;;;;;;4.30;0.90;;;;;;;;;;5103786;28;20039;-74
2021/03/13 05:39:33;;;;;;;3.28;0.85;;;;;;;;;;5104325;28;20435;-74
2021/03/13 05:41:59;;;;;;;4.40;1.38;;;;;;;;;;5102831;28;20031;-74
2021/03/13 05:44:24;;;;;;;2.35;0.93;;;;;;;;;;5103647;28;20056;-73
2021/03/13 05:46:51;;;;;;;2.50;1.00;;;;;;;;;;5104083;28;20076;-74
2021/03/13 05:49:17;;;;;;;10.85;1.42;;;;;;;;;;5102710;28;20118;-74
2021/03/13 05:51:45;;;;;;;2.95;1.08;;;;;;;;;;5105549;28;20035;-72
2021/03/13 05:54:13;;;;;;;4.53;1.38;;;;;;;;;;5086317;28;20377;-71
2021/03/13 05:56:39;;;;;;;4.75;1.40;;;;;;;;;;5100927;28;20461;-70
2021/03/13 05:59:05;;;;;;;6.00;2.45;;;;;;;;;;5098837;28;20038;-71
2021/03/13 06:01:31;;;;;;;7.53;2.10;;;;;;;;;;5106660;28;20036;-69
2021/03/13 06:03:57;;;;;;;6.22;1.55;;;;;;;;;;5107451;28;20046;-71
2021/03/13 06:06:24;;;;;;;5.15;1.42;;;;;;;;;;5103519;28;20036;-69
2021/03/13 06:08:50;;;;;;;4.32;1.25;;;;;;;;;;5103220;28;20083;-70
2021/03/13 06:11:17;;;;;;;4.22;1.15;;;;;;;;;;5106546;28;20110;-71
2021/03/13 06:13:43;;;;;;;8.32;2.42;;;;;;;;;;5106249;28;20101;-67
2021/03/13 06:16:09;;;;;;;5.38;1.58;;;;;;;;;;5106711;28;20533;-71
2021/03/13 06:18:50;;;;;;;5.53;1.42;;;;;;;;;;5105831;28;20138;-71
2021/03/13 06:21:30;;;;;;;8.45;1.58;;;;;;;;;;5105628;28;20036;-69
2021/03/13 06:24:00;;;;;;;7.70;1.88;;;;;;;;;;5108701;28;20036;-72
2021/03/13 06:26:27;;;;;;;4.82;1.65;;;;;;;;;;5102280;28;20106;-70
2021/03/13 06:28:55;;;;;;;6.20;1.52;;;;;;;;;;5102101;28;20024;-68
2021/03/13 06:31:25;;;;;;;4.70;1.33;;;;;;;;;;5100227;28;20034;-68
2021/03/13 06:33:51;;;;;;;3.53;1.08;;;;;;;;;;5100912;28;20047;-68
2021/03/13 06:36:21;;;;;;;2.78;1.05;;;;;;;;;;5096840;28;20027;-69
2021/03/13 06:38:47;;;;;;;6.03;1.17;;;;;;;;;;5108286;28;20872;-69
2021/03/13 06:41:18;;;;;;;4.18;1.52;;;;;;;;;;5105273;28;20046;-69
2021/03/13 06:43:46;;;;;;;4.75;1.40;;;;;;;;;;5108506;28;20055;-69
2021/03/13 06:46:17;;;;;;;6.43;1.60;;;;;;;;;;5103352;28;20134;-68
2021/03/13 06:48:43;;;;;;;5.53;1.08;;;;;;;;;;5104720;28;20040;-65
2021/03/13 06:51:25;;;;;;;4.60;1.33;;;;;;;;;;5107414;28;20039;-68
2021/03/13 06:54:20;;;;;;;2.50;0.90;;;;;;;;;;5103779;28;20115;-67
2021/03/13 06:57:06;;;;;;;7.15;1.40;;;;;;;;;;5100794;28;20516;-67
2021/03/13 06:59:39;;;;;;;5.78;1.05;;;;;;;;;;5099291;28;20035;-67
2021/03/13 07:02:04;;;;;;;2.60;1.00;;;;;;;;;;5107264;28;20485;-67
2021/03/13 07:04:47;;;;;;;5.38;1.45;;;;;;;;;;5100746;28;20119;-66
2021/03/13 07:07:34;;;;;;;4.25;1.30;;;;;;;;;;5099435;28;20031;-65
2021/03/13 07:10:04;;;;;;;2.50;0.98;;;;;;;;;;5099303;28;20032;-65
2021/03/13 07:12:40;;;;;;;4.90;1.13;;;;;;;;;;5103405;28;20070;-66
2021/03/13 07:15:19;;;;;;;3.55;1.02;;;;;;;;;;5097072;28;20040;-66
2021/03/13 07:17:52;;;;;;;8.02;2.78;;;;;;;;;;5103005;28;20408;-67
2021/03/13 07:20:26;;;;;;;4.40;1.90;;;;;;;;;;5100622;28;20043;-66
2021/03/13 07:22:57;;;;;;;15.43;12.43;;;;;;;;;;5108266;28;20031;-67
2021/03/13 07:25:24;;;;;;;9.43;3.33;;;;;;;;;;5098653;28;20516;-65
2021/03/13 07:27:59;;;;;;;8.40;6.05;;;;;;;;;;5100925;28;20040;-66
2021/03/13 07:30:26;;;;;;;5.97;3.67;;;;;;;;;;5100444;28;20103;-66
2021/03/13 07:32:58;;;;;;;4.38;1.40;;;;;;;;;;5106590;28;20059;-66
2021/03/13 07:35:28;;;;;;;5.18;1.77;;;;;;;;;;5103048;28;20385;-66
2021/03/13 07:37:55;;;;;;;7.63;1.65;;;;;;;;;;5106247;28;20023;-65
2021/03/13 07:40:22;;;;;;;5.00;1.10;;;;;;;;;;5101538;28;20118;-66
2021/03/13 07:42:48;;;;;;;4.30;1.25;;;;;;;;;;5099199;28;20028;-66
2021/03/13 07:45:14;;;;;;;4.38;1.10;;;;;;;;;;5106026;28;20040;-67
2021/03/13 07:47:41;;;;;;;3.03;1.17;;;;;;;;;;5102384;28;20039;-66
2021/03/13 07:50:11;;;;;;;4.22;1.05;;;;;;;;;;5107579;28;20035;-66
2021/03/13 07:52:42;;;;;;;2.58;1.05;;;;;;;;;;5101898;28;20035;-66
2021/03/13 07:55:19;;;;;;;4.50;1.07;;;;;;;;;;5104786;28;20089;-66
2021/03/13 07:57:46;;;;;;;6.07;1.80;;;;;;;;;;5105555;28;20416;-66
2021/03/13 08:00:12;;;;;;;5.35;1.33;;;;;;;;;;5099669;28;20031;-68
2021/03/13 08:02:42;;;;;;;3.03;1.10;;;;;;;;;;5104906;28;20028;-67
2021/03/13 08:05:09;;;;;;;11.20;1.80;;;;;;;;;;5105732;28;20032;-68
2021/03/13 08:07:50;;;;;;;3.95;0.98;;;;;;;;;;5105108;28;20036;-68
2021/03/13 08:10:42;;;;;;;6.38;1.50;;;;;;;;;;5103248;28;20027;-69
2021/03/13 08:13:08;;;;;;;3.63;1.33;;;;;;;;;;5101955;28;20035;-69
2021/03/13 08:15:33;;;;;;;5.95;1.60;;;;;;;;;;5104957;28;20450;-66
2021/03/13 08:18:02;;;;;;;4.63;1.40;;;;;;;;;;5102305;28;20095;-69
2021/03/13 08:20:35;;;;;;;6.82;1.40;;;;;;;;;;5102909;28;20028;-67
2021/03/13 08:23:15;;;;;;;4.22;1.40;;;;;;;;;;5102174;28;20071;-68
2021/03/13 08:25:54;;;;;;;9.07;1.58;;;;;;;;;;5104961;28;20031;-68
2021/03/13 08:28:45;;;;;;;5.40;1.00;;;;;;;;;;5102826;28;20112;-68
2021/03/13 08:31:28;;;;;;;5.70;2.03;;;;;;;;;;5102354;28;20031;-68
2021/03/13 08:34:39;;;;;;;6.53;2.08;;;;;;;;;;5102155;28;20116;-68
2021/03/13 08:37:19;;;;;;;2.47;1.15;;;;;;;;;;5103754;28;20048;-69
2021/03/13 08:39:45;;;;;;;3.22;1.00;;;;;;;;;;5093619;28;20122;-66
2021/03/13 08:42:28;;;;;;;3.08;1.20;;;;;;;;;;5092525;28;20165;-68
2021/03/13 08:45:13;;;;;;;10.10;1.10;;;;;;;;;;5080469;28;20039;-66
2021/03/13 08:47:52;;;;;;;8.75;1.23;;;;;;;;;;5085534;28;20032;-67
2021/03/13 08:50:45;;;;;;;3.13;1.25;;;;;;;;;;5100677;28;20034;-67
2021/03/13 08:53:33;;;;;;;2.78;1.10;;;;;;;;;;5096890;28;20039;-67
2021/03/13 08:55:59;;;;;;;2.35;0.77;;;;;;;;;;5100202;28;20614;-69
2021/03/13 08:58:45;;;;;;;4.68;1.60;;;;;;;;;;5099984;28;20081;-69
2021/03/13 09:01:18;;;;;;;3.33;0.80;;;;;;;;;;5097124;28;20040;-70
2021/03/13 09:03:49;;;;;;;2.50;0.95;;;;;;;;;;5092140;28;20031;-69
2021/03/13 09:06:22;;;;;;;1.95;0.68;;;;;;;;;;5089940;28;20024;-68
2021/03/13 09:08:48;;;;;;;5.82;1.20;;;;;;;;;;5092458;28;20050;-68
2021/03/13 09:11:27;;;;;;;6.97;1.10;;;;;;;;;;5087062;28;20024;-67
2021/03/13 09:14:00;;;;;;;2.78;0.65;;;;;;;;;;5093586;28;20981;-67
2021/03/13 09:16:25;;;;;;;3.20;1.00;;;;;;;;;;5084982;28;20140;-67
2021/03/13 09:18:53;;;;;;;6.18;1.38;;;;;;;;;;5090749;28;20122;-67
2021/03/13 09:21:41;;;;;;;1.50;0.68;;;;;;;;;;5096732;28;20032;-67
2021/03/13 09:24:12;;;;;;;3.50;1.10;;;;;;;;;;5102051;28;20031;-69
2021/03/13 09:26:38;;;;;;;3.35;0.80;;;;;;;;;;5093913;28;20038;-68
2021/03/13 09:29:04;;;;;;;2.67;0.80;;;;;;;;;;5099645;28;20036;-68
2021/03/13 09:31:29;;;;;;;5.45;1.00;;;;;;;;;;5102276;28;20613;-68
2021/03/13 09:34:12;;;;;;;5.03;1.40;;;;;;;;;;5093874;28;20032;-71
2021/03/13 09:36:37;;;;;;;2.72;0.88;;;;;;;;;;5096403;28;20047;-70
2021/03/13 09:39:03;;;;;;;1.70;0.60;;;;;;;;;;5096466;28;20036;-69
2021/03/13 09:41:28;;;;;;;5.53;0.90;;;;;;;;;;5097380;28;20039;-67
2021/03/13 09:43:54;;;;;;;3.80;0.88;;;;;;;;;;5101006;28;20109;-70
2021/03/13 09:46:20;;;;;;;2.95;0.98;;;;;;;;;;5097640;28;20496;-66
2021/03/13 09:48:45;;;;;;;5.80;1.48;;;;;;;;;;5099419;28;20128;-70
2021/03/13 09:51:11;;;;;;;4.90;1.00;;;;;;;;;;5104130;28;20023;-69
2021/03/13 09:53:42;;;;;;;3.05;0.85;;;;;;;;;;5104973;28;20473;-69
2021/03/13 09:56:07;;;;;;;2.67;0.85;;;;;;;;;;5104437;28;20039;-71
2021/03/13 09:58:33;;;;;;;3.35;0.90;;;;;;;;;;5103236;28;20054;-69
2021/03/13 10:00:59;;;;;;;2.67;0.90;;;;;;;;;;5098864;28;20027;-70
2021/03/13 10:03:25;;;;;;;2.53;0.80;;;;;;;;;;5100989;28;20473;-69
2021/03/13 10:05:55;;;;;;;3.47;1.00;;;;;;;;;;5098298;28;20031;-69
2021/03/13 10:08:34;;;;;;;1.63;0.70;;;;;;;;;;5097176;28;20032;-69
2021/03/13 10:11:04;;;;;;;3.10;0.80;;;;;;;;;;5099291;28;20609;-70
2021/03/13 10:13:30;;;;;;;2.85;0.88;;;;;;;;;;5094900;28;20073;-70
2021/03/13 10:15:55;;;;;;;3.80;0.88;;;;;;;;;;5101663;28;20063;-69
2021/03/13 10:18:25;;;;;;;5.43;0.80;;;;;;;;;;5101671;28;20521;-68
2021/03/13 10:20:52;;;;;;;4.35;0.75;;;;;;;;;;5100887;28;20035;-70
2021/03/13 10:23:23;;;;;;;2.08;0.50;;;;;;;;;;5099026;28;20100;-71
2021/03/13 10:25:53;;;;;;;7.85;1.10;;;;;;;;;;5103553;28;20028;-70
2021/03/13 10:28:19;;;;;;;3.85;0.73;;;;;;;;;;5103765;28;20116;-71
2021/03/13 10:30:46;;;;;;;2.50;0.57;;;;;;;;;;5098194;28;20748;-69
2021/03/13 10:33:12;;;;;;;4.03;0.60;;;;;;;;;;5098895;28;20058;-70
2021/03/13 10:35:38;;;;;;;4.10;0.90;;;;;;;;;;5106049;28;20035;-68
2021/03/13 10:38:10;;;;;;;2.80;0.80;;;;;;;;;;5105678;28;20036;-70
2021/03/13 10:40:41;;;;;;;4.55;0.93;;;;;;;;;;5095780;28;20043;-69
2021/03/13 10:43:23;;;;;;;0.95;0.50;;;;;;;;;;5104770;28;20047;-71
2021/03/13 10:45:57;;;;;;;;;;;;;;;;;;5100323;28;20484;-68
2021/03/13 10:48:24;;;;;;;2.50;1.02;;;;;;;;;;5097843;28;19915;-70
2021/03/13 10:50:49;;;;;;;2.35;0.75;;;;;;;;;;5093106;28;20042;-70
2021/03/13 10:53:30;;;;;;;1.90;0.65;;;;;;;;;;5100528;28;20468;-70
2021/03/13 10:56:01;;;;;;;3.30;0.82;;;;;;;;;;5096381;28;20071;-71
2021/03/13 10:58:32;;;;;;;3.05;0.77;;;;;;;;;;5096763;28;20416;-72
2021/03/13 11:00:59;;;;;;;3.10;0.73;;;;;;;;;;5096092;28;20032;-69
2021/03/13 11:03:26;;;;;;;3.10;0.95;;;;;;;;;;5104369;28;20108;-68
2021/03/13 11:05:52;;;;;;;1.42;0.52;;;;;;;;;;5096438;28;20059;-67
2021/03/13 11:08:22;;;;;;;4.07;0.73;;;;;;;;;;5098022;28;20037;-69
2021/03/13 11:10:49;;;;;;;1.00;0.52;;;;;;;;;;5097191;28;20451;-68
2021/03/13 11:13:15;;;;;;;1.95;0.55;;;;;;;;;;5100250;28;20115;-67
2021/03/13 11:15:41;;;;;;;2.20;0.60;;;;;;;;;;5093521;28;20058;-68
2021/03/13 11:18:07;;;;;;;2.05;0.68;;;;;;;;;;5099004;28;20056;-68
2021/03/13 11:20:34;;;;;;;1.35;0.70;;;;;;;;;;5104425;28;20044;-67
2021/03/13 11:23:00;;;;;;;1.30;0.50;;;;;;;;;;5102784;28;20803;-67
2021/03/13 11:25:25;;;;;;;1.40;0.55;;;;;;;;;;5102631;28;20051;-67
2021/03/13 11:27:51;;;;;;;1.35;0.57;;;;;;;;;;5106047;28;20139;-67
2021/03/13 11:30:17;;;;;;;1.52;0.55;;;;;;;;;;5107385;28;20569;-68
2021/03/13 11:32:42;;;;;;;4.43;0.57;;;;;;;;;;5085229;28;20031;-69
2021/03/13 11:35:08;;;;;;;5.65;0.52;;;;;;;;;;5104122;28;20058;-70
2021/03/13 11:37:35;;;;;;;0.77;0.40;;;;;;;;;;5106487;28;20028;-68
2021/03/13 11:40:02;;;;;;;2.15;0.65;;;;;;;;;;5106171;28;20475;-69
2021/03/13 11:42:29;;;;;;;2.10;0.85;;;;;;;;;;5100958;28;20123;-68
2021/03/13 11:44:56;;;;;;;3.08;0.60;;;;;;;;;;5105239;28;20024;-68
2021/03/13 11:47:25;;;;;;;0.98;0.50;;;;;;;;;;5101532;28;20803;-68
2021/03/13 11:49:51;;;;;;;1.90;0.47;;;;;;;;;;5100552;28;20030;-68
2021/03/13 11:52:18;;;;;;;1.48;0.40;;;;;;;;;;5104338;28;20039;-68
2021/03/13 11:54:44;;;;;;;1.35;0.50;;;;;;;;;;5103955;28;20092;-68
2021/03/13 11:57:09;;;;;;;2.20;0.68;;;;;;;;;;5102807;28;20027;-69
2021/03/13 11:59:35;;;;;;;1.65;0.60;;;;;;;;;;5100963;28;20028;-68
2021/03/13 12:02:00;;;;;;;1.52;0.68;;;;;;;;;;5101271;28;20042;-68
2021/03/13 12:04:26;;;;;;;1.95;0.50;;;;;;;;;;5099571;28;20023;-68
2021/03/13 12:06:51;;;;;;;2.15;0.47;;;;;;;;;;5089643;28;20036;-69
2021/03/13 12:09:17;;;;;;;1.02;0.52;;;;;;;;;;5093542;28;20036;-68
2021/03/13 12:11:42;;;;;;;1.95;0.73;;;;;;;;;;5099108;28;20035;-70
2021/03/13 12:14:09;;;;;;;2.30;0.50;;;;;;;;;;5078303;28;20604;-66
2021/03/13 12:16:35;;;;;;;1.55;0.63;;;;;;;;;;5102991;28;20020;-69
2021/03/13 12:19:01;;;;;;;2.67;0.73;;;;;;;;;;5105543;28;20050;-68
2021/03/13 12:21:27;;;;;;;2.80;0.63;;;;;;;;;;5104874;28;20587;-66
2021/03/13 12:23:53;;;;;;;1.02;0.50;;;;;;;;;;5104049;28;20535;-67
2021/03/13 12:26:18;;;;;;;1.77;0.40;;;;;;;;;;5099978;28;20042;-68
2021/03/13 12:28:45;;;;;;;2.30;1.08;;;;;;;;;;5102365;28;20080;-68
2021/03/13 12:31:10;;;;;;;2.97;1.25;;;;;;;;;;5104661;28;20024;-69
2021/03/13 12:33:35;;;;;;;2.17;0.95;;;;;;;;;;5101801;28;20039;-70
2021/03/13 12:36:01;;;;;;;5.18;1.33;;;;;;;;;;5103136;28;20039;-66
2021/03/13 12:38:27;;;;;;;1.13;0.57;;;;;;;;;;5092687;28;20123;-66
2021/03/13 12:40:53;;;;;;;1.65;0.68;;;;;;;;;;5098568;28;20082;-68
2021/03/13 12:43:18;;;;;;;1.17;0.70;;;;;;;;;;5089157;28;20067;-67
2021/03/13 12:45:44;;;;;;;1.30;0.65;;;;;;;;;;5097219;28;20031;-69
2021/03/13 12:48:09;;;;;;;2.28;1.00;;;;;;;;;;5099727;28;20154;-68
2021/03/13 12:50:35;;;;;;;4.60;1.65;;;;;;;;;;5094656;28;20031;-68
2021/03/13 12:53:00;;;;;;;2.42;0.85;;;;;;;;;;5095457;28;20381;-70
2021/03/13 12:55:27;;;;;;;2.00;0.82;;;;;;;;;;5099738;28;20491;-68
2021/03/13 12:57:53;;;;;;;4.18;1.00;;;;;;;;;;5101537;28;20582;-69
2021/03/13 13:00:20;;;;;;;2.17;0.93;;;;;;;;;;5098444;28;20054;-68
2021/03/13 13:02:46;;;;;;;4.38;1.08;;;;;;;;;;5096483;28;20047;-71
2021/03/13 13:05:12;;;;;;;5.20;1.38;;;;;;;;;;5095992;28;20028;-68
2021/03/13 13:07:40;;;;;;;3.25;1.27;;;;;;;;;;5099044;28;20032;-67
2021/03/13 13:10:06;;;;;;;2.85;1.35;;;;;;;;;;5093788;28;20448;-67
2021/03/13 13:12:31;;;;;;;7.45;1.65;;;;;;;;;;5100289;28;20532;-67
2021/03/13 13:14:57;;;;;;;3.80;1.80;;;;;;;;;;5100953;28;20135;-68
2021/03/13 13:17:22;;;;;;;7.65;1.75;;;;;;;;;;5097967;28;20031;-69
2021/03/13 13:19:48;;;;;;;5.78;1.90;;;;;;;;;;5104190;28;20471;-69
2021/03/13 13:22:13;;;;;;;3.97;1.52;;;;;;;;;;5093989;28;20077;-68
2021/03/13 13:24:38;;;;;;;5.03;1.30;;;;;;;;;;5091153;28;20136;-68
2021/03/13 13:27:04;;;;;;;5.65;1.50;;;;;;;;;;5088201;28;20028;-68
2021/03/13 13:29:29;;;;;;;4.93;1.60;;;;;;;;;;5098652;28;20051;-68
2021/03/13 13:31:55;;;;;;;4.40;1.25;;;;;;;;;;5095261;28;20040;-68
2021/03/13 13:34:20;;;;;;;4.45;1.70;;;;;;;;;;5093499;28;20078;-69
2021/03/13 13:36:46;;;;;;;8.13;1.88;;;;;;;;;;5099863;28;20068;-68
2021/03/13 13:39:12;;;;;;;5.00;1.42;;;;;;;;;;5096394;28;20073;-69
2021/03/13 13:41:37;;;;;;;4.60;1.88;;;;;;;;;;5100907;28;20052;-68
2021/03/13 13:44:03;;;;;;;6.10;2.00;;;;;;;;;;5104271;28;20032;-68
2021/03/13 13:46:28;;;;;;;4.30;1.50;;;;;;;;;;5099824;28;20096;-69
2021/03/13 13:48:55;;;;;;;4.50;1.75;;;;;;;;;;5098138;28;20047;-68
2021/03/13 13:51:21;;;;;;;6.10;1.80;;;;;;;;;;5101485;28;20054;-68
2021/03/13 13:53:49;;;;;;;4.15;1.90;;;;;;;;;;5102674;28;20071;-68
2021/03/13 13:56:16;;;;;;;6.25;1.98;;;;;;;;;;5103246;28;20491;-65
2021/03/13 13:58:41;;;;;;;7.22;2.13;;;;;;;;;;5102544;28;20039;-65
2021/03/13 14:01:07;;;;;;;8.48;2.38;;;;;;;;;;5099312;28;20081;-68
2021/03/13 14:03:32;;;;;;;5.88;1.80;;;;;;;;;;5100930;28;20044;-66
2021/03/13 14:05:58;;;;;;;6.30;1.98;;;;;;;;;;5099489;28;20031;-65
2021/03/13 14:08:23;;;;;;;9.05;1.80;;;;;;;;;;5102281;28;20066;-67
2021/03/13 14:10:48;;;;;;;4.70;1.90;;;;;;;;;;5099938;28;20028;-68
2021/03/13 14:13:14;;;;;;;8.38;1.85;;;;;;;;;;5101875;28;20058;-68
2021/03/13 14:15:39;;;;;;;4.95;1.60;;;;;;;;;;5102751;28;20046;-66
2021/03/13 14:18:06;;;;;;;6.47;1.80;;;;;;;;;;5097963;28;20031;-66
2021/03/13 14:20:31;;;;;;;4.40;1.45;;;;;;;;;;5104727;28;20031;-67
2021/03/13 14:22:56;;;;;;;4.60;1.48;;;;;;;;;;5101016;28;20521;-66
2021/03/13 14:25:22;;;;;;;5.13;1.30;;;;;;;;;;5103351;28;20050;-67
2021/03/13 14:27:49;;;;;;;3.55;1.10;;;;;;;;;;5108508;28;20054;-65
2021/03/13 14:30:16;;;;;;;2.13;0.90;;;;;;;;;;5102649;28;20036;-67
2021/03/13 14:32:42;;;;;;;4.00;1.13;;;;;;;;;;5105872;28;20074;-66
2021/03/13 14:35:15;;;;;;;3.38;1.23;;;;;;;;;;5106963;28;20403;-67
2021/03/13 14:37:44;;;;;;;6.20;1.30;;;;;;;;;;5100884;28;20025;-67
2021/03/13 14:40:11;;;;;;;3.95;0.90;;;;;;;;;;5097600;28;20049;-66
2021/03/13 14:42:38;;;;;;;4.10;0.93;;;;;;;;;;5105733;28;20380;-69
2021/03/13 14:45:05;;;;;;;2.53;0.80;;;;;;;;;;5108105;28;20084;-67
2021/03/13 14:47:31;;;;;;;1.98;0.70;;;;;;;;;;5106985;28;20046;-70
2021/03/13 14:49:56;;;;;;;0.80;0.38;;;;;;;;;;5097988;28;20031;-66
2021/03/13 14:52:22;;;;;;;2.10;0.50;;;;;;;;;;5105170;28;20362;-66